Godthab, Greenland
Current Conditions -  °F | °C
As of 8:50 AM on Thursday 23 Oct 2014 (Local Time) from BGGH Reporting Station
Overcast Overcast  
Wind Chill: 21°   Ceiling: 2500
Heat Index: 30°   Visibility: 6mi
Dew Point: 23°   Wind: 10mph
Humidity: 75%   Direction: 80°E
Pressure: 29.53"   Gusts: NA
Location:  64.18°N, 51.72°W
Report Text: BGGH 231050Z 08009KT 9999 OVC025 M01/M05 Q1000
Loading
Personal Weather Stations






























Interactive Weather Map
Tropical Storm Tracking
New forecast layout! Learn more

10-Day Weather Forecast

Advertisements
Track Severe Weather on mobile